You are not logged in, Click here to log in
機場資訊:EDDT Welcome to Taiwan Airways 台灣虛擬航空
ICAO: EDDT Country: Berlin
Latitude: 52.5597 Longitude: 13.2877
Total Arrivals: 3 Total Departures: 2
Latest Arrival: A6608 (EDDH-EDDT)Arthur. Kung Latest Departure: DL232 (EDDT-LIRF)Arthur. Kung
Scenery: http://en.wikipedia.org/wiki/Erfurt_Airport
METAR : EDDT 141820Z 08006KT 050V110 CAVOK 18/13 Q1013 NOSIG

Berlin-Tegel Airport